createdAt,value
2022-11-25T00:07:07.626Z,92.71
2022-11-25T00:17:11.643Z,92.12
2022-11-25T00:27:14.339Z,92.04
2022-11-25T00:37:18.309Z,91.94
2022-11-25T00:47:22.122Z,91.52
2022-11-25T00:57:26.099Z,90.69
2022-11-25T01:07:28.830Z,90.97
2022-11-25T01:17:33.538Z,90.06
2022-11-25T01:27:36.161Z,90.12
2022-11-25T01:37:40.169Z,90.06
2022-11-25T01:47:42.815Z,90.19
2022-11-25T01:57:49.474Z,90.00
2022-11-25T02:07:54.268Z,89.67
2022-11-25T02:17:58.391Z,90.15
2022-11-25T02:28:06.684Z,89.62
2022-11-25T02:38:11.273Z,88.72
2022-11-25T02:48:15.703Z,88.39
2022-11-25T02:58:18.389Z,88.78
2022-11-25T03:08:22.466Z,88.35
2022-11-25T03:18:25.167Z,89.70
2022-11-25T03:28:29.190Z,89.87
2022-11-25T03:38:31.843Z,92.04
2022-11-25T03:48:36.429Z,92.88
2022-11-25T03:58:39.114Z,92.97
2022-11-25T04:08:43.131Z,93.63
2022-11-25T04:18:45.753Z,93.90
2022-11-25T04:28:51.092Z,94.31
2022-11-25T04:38:55.689Z,93.98
2022-11-25T04:48:59.671Z,93.83
2022-11-25T04:59:19.738Z,94.56
2022-11-25T05:09:24.186Z,94.36
2022-11-25T05:19:26.816Z,94.35
2022-11-25T05:29:30.781Z,95.02
2022-11-25T05:39:33.429Z,95.39
2022-11-25T05:49:37.414Z,94.28
2022-11-25T05:59:40.083Z,95.36
2022-11-25T06:09:44.065Z,95.34
2022-11-25T06:19:47.927Z,95.73
2022-11-25T06:29:51.913Z,95.68
2022-11-25T06:39:54.556Z,95.82
2022-11-25T06:49:58.626Z,95.55
2022-11-25T07:00:01.249Z,95.80
2022-11-25T07:10:06.281Z,95.93
2022-11-25T07:20:10.013Z,96.06
2022-11-25T07:31:21.658Z,96.09
2022-11-25T07:40:37.402Z,95.84
2022-11-25T07:50:41.386Z,95.91
2022-11-25T08:00:44.224Z,95.88
2022-11-25T08:10:48.216Z,95.62
2022-11-25T08:20:50.884Z,95.59
2022-11-25T08:31:02.934Z,95.62
2022-11-25T08:41:10.940Z,95.61
2022-11-25T08:51:16.602Z,95.11
2022-11-25T09:01:20.743Z,94.35
2022-11-25T09:11:24.965Z,94.90
2022-11-25T09:21:28.829Z,94.80
2022-11-25T09:31:32.882Z,94.85
2022-11-25T09:42:09.623Z,94.85
2022-11-25T09:52:24.503Z,93.02
2022-11-25T10:02:31.256Z,92.40
2022-11-25T10:12:39.938Z,91.98
2022-11-25T10:22:45.281Z,89.74
2022-11-25T10:32:56.591Z,89.63
2022-11-25T10:43:10.949Z,88.79
2022-11-25T10:53:18.832Z,87.22
2022-11-25T11:03:26.284Z,87.42
2022-11-25T11:13:33.469Z,85.58
2022-11-25T11:23:50.119Z,84.95
2022-11-25T11:34:01.706Z,84.73
2022-11-25T11:44:19.849Z,83.55
2022-11-25T11:54:34.724Z,81.19
2022-11-25T12:04:41.775Z,80.09
2022-11-25T12:14:50.438Z,61.44
2022-11-25T12:25:01.426Z,49.58
2022-11-25T12:35:16.355Z,50.89
2022-11-25T12:45:23.527Z,52.01
2022-11-25T12:55:28.841Z,56.56
2022-11-25T13:06:10.496Z,67.96
2022-11-25T13:16:15.647Z,74.36
2022-11-25T13:26:46.675Z,76.22
2022-11-25T13:36:52.652Z,75.65
2022-11-25T13:46:58.157Z,72.29
2022-11-25T13:57:20.943Z,66.85
2022-11-25T14:07:33.974Z,74.87
2022-11-25T14:18:05.318Z,78.66
2022-11-25T14:28:15.278Z,80.14
2022-11-25T14:38:24.177Z,81.39
2022-11-25T14:48:27.271Z,81.68
2022-11-25T14:58:31.742Z,82.91
2022-11-25T15:08:40.956Z,83.24
2022-11-25T15:18:51.431Z,84.53
2022-11-25T15:28:57.815Z,86.08
2022-11-25T15:39:18.060Z,85.69
2022-11-25T15:49:21.123Z,85.61
2022-11-25T15:59:41.461Z,86.36
2022-11-25T16:09:51.256Z,86.71
2022-11-25T16:19:55.275Z,87.54
2022-11-25T16:30:08.144Z,87.57
2022-11-25T16:40:16.241Z,87.68
2022-11-25T16:50:19.949Z,88.09
2022-11-25T17:00:24.407Z,88.88
2022-11-25T17:10:27.930Z,88.99
2022-11-25T17:20:31.916Z,89.03
2022-11-25T17:30:34.595Z,88.93
2022-11-25T17:40:39.065Z,89.55
2022-11-25T17:50:43.374Z,90.08
2022-11-25T18:00:48.355Z,90.07
2022-11-25T18:10:51.225Z,90.10
2022-11-25T18:20:55.856Z,90.55
2022-11-25T18:31:03.062Z,91.21
2022-11-25T18:41:07.293Z,92.91
2022-11-25T18:51:13.051Z,92.05
2022-11-25T19:01:17.418Z,92.13
2022-11-25T19:11:24.265Z,92.38
2022-11-25T19:21:30.489Z,92.72
2022-11-25T19:31:34.456Z,93.05
2022-11-25T19:41:38.483Z,93.62
2022-11-25T19:51:41.202Z,93.90
2022-11-25T20:01:46.454Z,94.20
2022-11-25T20:11:54.080Z,94.53
2022-11-25T20:21:58.130Z,94.27
2022-11-25T20:32:23.189Z,93.94
2022-11-25T20:42:28.198Z,93.33
2022-11-25T20:52:32.234Z,93.03
2022-11-25T21:02:36.348Z,92.93
2022-11-25T21:12:39.150Z,92.80
2022-11-25T21:22:47.539Z,92.64
2022-11-25T21:32:53.142Z,92.74
2022-11-25T21:42:57.160Z,92.71
2022-11-25T21:53:00.918Z,93.12
2022-11-25T22:03:06.862Z,93.37
2022-11-25T22:13:13.232Z,94.81
2022-11-25T22:23:19.443Z,95.46
2022-11-25T22:33:29.975Z,95.87
2022-11-25T22:43:38.092Z,95.72
2022-11-25T22:53:40.747Z,95.74
2022-11-25T23:03:45.756Z,95.26
2022-11-25T23:13:48.828Z,95.20
2022-11-25T23:23:52.862Z,94.89
2022-11-25T23:33:55.632Z,94.99
2022-11-25T23:44:04.032Z,94.75
2022-11-25T23:54:06.810Z,94.80
